Time;durP1;ratioP1;P1;durP2;ratioP2;P2;SDS_P1;SDS_P2;PMS_P1;PMS_P2;Temp;Humidity;BMP_temperature;BMP_pressure;BME280_temperature;BME280_humidity;BME280_pressure;Samples;Min_cycle;Max_cycle;Signal;HPM_P1;HPM_P2
2022/11/19 00:01:18;;;;;;;10.05;8.18;;;-1.90;99.90;;;;;;5046079;28;20209;-63
2022/11/19 00:03:45;;;;;;;11.93;7.47;;;-1.90;99.90;;;;;;5041022;28;20205;-63
2022/11/19 00:06:13;;;;;;;11.48;8.57;;;-1.90;99.90;;;;;;5046792;28;20226;-64
2022/11/19 00:08:40;;;;;;;14.32;8.07;;;-1.90;99.90;;;;;;5043685;28;20265;-63
2022/11/19 00:11:10;;;;;;;11.10;8.57;;;-2.00;99.90;;;;;;5044343;28;20206;-63
2022/11/19 00:13:36;;;;;;;12.90;8.25;;;-2.00;99.90;;;;;;5037938;28;20203;-62
2022/11/19 00:16:05;;;;;;;10.80;7.25;;;-2.00;99.90;;;;;;5035747;28;20218;-63
2022/11/19 00:18:32;;;;;;;10.25;8.45;;;-2.10;99.90;;;;;;5042073;28;20207;-62
2022/11/19 00:21:06;;;;;;;12.43;8.80;;;-2.10;99.90;;;;;;5035767;28;20211;-63
2022/11/19 00:23:33;;;;;;;15.05;8.98;;;-2.10;99.90;;;;;;5033672;28;20693;-61
2022/11/19 00:26:14;;;;;;;12.40;7.65;;;-2.10;99.90;;;;;;5035223;28;20586;-62
2022/11/19 00:28:41;;;;;;;13.38;9.15;;;-2.20;99.90;;;;;;5037950;28;20182;-63
2022/11/19 00:31:10;;;;;;;10.65;8.35;;;-2.20;99.90;;;;;;5037544;28;20210;-62
2022/11/19 00:33:37;;;;;;;15.90;9.57;;;-2.20;99.90;;;;;;5037249;28;20203;-62
2022/11/19 00:36:05;;;;;;;14.38;8.32;;;-2.20;99.90;;;;;;5037101;28;20244;-62
2022/11/19 00:38:32;;;;;;;9.55;8.02;;;-2.20;99.90;;;;;;5037462;28;20202;-62
2022/11/19 00:40:59;;;;;;;12.15;8.10;;;-2.30;99.90;;;;;;5036863;28;20694;-63
2022/11/19 00:46:12;;;;;;;12.65;7.95;;;-2.30;99.90;;;;;;5036883;28;20229;-62
2022/11/19 00:48:38;;;;;;;11.02;7.13;;;-2.30;99.90;;;;;;5036817;28;20222;-63
2022/11/19 00:51:06;;;;;;;12.43;8.25;;;-2.30;99.90;;;;;;5036340;28;20238;-63
2022/11/19 00:53:32;;;;;;;13.40;8.38;;;-2.40;99.90;;;;;;5036816;28;20202;-62
2022/11/19 00:56:00;;;;;;;10.60;7.97;;;-2.40;99.90;;;;;;5036405;28;20226;-62
2022/11/19 00:58:28;;;;;;;11.45;8.20;;;-2.40;99.90;;;;;;5037681;28;20284;-62
2022/11/19 01:00:55;;;;;;;11.93;8.30;;;-2.40;99.90;;;;;;5036768;28;20210;-62
2022/11/19 01:03:22;;;;;;;14.13;8.82;;;-2.40;99.90;;;;;;5036569;28;20214;-63
2022/11/19 01:05:49;;;;;;;11.43;8.45;;;-2.40;99.90;;;;;;5036625;28;20227;-62
2022/11/19 01:08:16;;;;;;;13.30;8.30;;;-2.50;99.90;;;;;;5036029;28;20209;-63
2022/11/19 01:10:43;;;;;;;15.30;8.70;;;-2.40;99.90;;;;;;5036512;28;20203;-62
2022/11/19 01:15:56;;;;;;;12.35;8.60;;;-2.50;99.90;;;;;;5036424;28;20317;-62
2022/11/19 01:18:22;;;;;;;11.70;7.78;;;-2.50;99.90;;;;;;5036648;28;20213;-63
2022/11/19 01:20:49;;;;;;;13.25;9.02;;;-2.50;99.90;;;;;;5036180;28;20670;-63
2022/11/19 01:23:16;;;;;;;14.90;9.25;;;-2.50;99.90;;;;;;5036416;28;20202;-63
2022/11/19 01:25:43;;;;;;;12.63;7.53;;;-2.50;99.90;;;;;;5036771;28;20253;-61
2022/11/19 01:28:10;;;;;;;12.95;7.90;;;-2.50;99.90;;;;;;5036462;28;20237;-62
2022/11/19 01:30:40;;;;;;;13.23;9.35;;;-2.50;99.90;;;;;;5036317;28;20202;-63
2022/11/19 01:33:09;;;;;;;13.90;9.05;;;-2.50;99.90;;;;;;5037143;28;20257;-63
2022/11/19 01:35:36;;;;;;;14.73;9.02;;;-2.60;99.90;;;;;;5036008;28;20605;-63
2022/11/19 01:38:04;;;;;;;16.83;10.27;;;-2.60;99.90;;;;;;5036394;28;20202;-63
2022/11/19 01:40:30;;;;;;;16.75;10.50;;;-2.60;99.90;;;;;;5037058;28;20198;-62
2022/11/19 01:42:57;;;;;;;12.63;9.07;;;-2.60;99.90;;;;;;5037792;28;20214;-63
2022/11/19 01:45:34;;;;;;;18.17;9.32;;;-2.70;99.90;;;;;;5038022;28;20726;-63
2022/11/19 01:48:06;;;;;;;15.30;10.20;;;-2.70;99.90;;;;;;5036559;28;20187;-63
2022/11/19 01:50:38;;;;;;;16.77;10.40;;;-2.70;99.90;;;;;;5036733;28;20191;-63
2022/11/19 01:53:07;;;;;;;14.75;9.55;;;-2.80;99.90;;;;;;5036502;28;20190;-62
2022/11/19 01:55:35;;;;;;;14.85;9.63;;;-2.80;99.90;;;;;;5036412;28;20223;-63
2022/11/19 01:58:03;;;;;;;15.95;9.55;;;-2.80;99.90;;;;;;5037175;28;20198;-62
2022/11/19 02:00:30;;;;;;;14.98;9.27;;;-2.80;99.90;;;;;;5036662;28;20231;-63
2022/11/19 02:02:57;;;;;;;13.63;8.75;;;-2.80;99.90;;;;;;5036437;28;20210;-63
2022/11/19 02:05:24;;;;;;;13.52;8.43;;;-2.80;99.90;;;;;;5035694;28;20229;-64
2022/11/19 02:07:56;;;;;;;18.52;9.60;;;-2.90;99.90;;;;;;5036093;28;20542;-62
2022/11/19 02:10:29;;;;;;;16.85;9.82;;;-2.90;99.90;;;;;;5036521;28;20193;-63
2022/11/19 02:13:06;;;;;;;18.98;10.05;;;-2.90;99.90;;;;;;5036606;28;20186;-62
2022/11/19 02:15:40;;;;;;;14.85;9.50;;;-2.90;99.90;;;;;;5036429;28;20280;-62
2022/11/19 02:18:29;;;;;;;16.70;9.57;;;-2.90;99.90;;;;;;5036460;28;20191;-62
2022/11/19 02:21:18;;;;;;;17.70;8.88;;;-2.90;99.90;;;;;;5035821;28;20229;-62
2022/11/19 02:24:18;;;;;;;11.77;8.60;;;-2.90;99.90;;;;;;5037181;28;20209;-63
2022/11/19 02:27:16;;;;;;;11.70;8.45;;;-3.00;99.90;;;;;;5038498;28;20222;-62
2022/11/19 02:30:11;;;;;;;13.57;8.48;;;-3.00;99.90;;;;;;5039317;28;20210;-62
2022/11/19 02:32:50;;;;;;;16.13;8.02;;;-3.00;99.90;;;;;;5039168;28;20198;-62
2022/11/19 02:35:23;;;;;;;16.08;9.10;;;-3.00;99.90;;;;;;5037318;28;20226;-62
2022/11/19 02:37:55;;;;;;;14.95;8.85;;;-3.00;99.90;;;;;;5037606;28;20210;-61
2022/11/19 02:40:28;;;;;;;14.93;9.38;;;-3.10;99.90;;;;;;5036007;28;20233;-61
2022/11/19 02:43:03;;;;;;;11.63;7.40;;;-3.10;99.90;;;;;;5036615;28;20214;-61
2022/11/19 02:45:35;;;;;;;14.93;8.20;;;-3.10;99.90;;;;;;5037005;28;20222;-61
2022/11/19 02:48:06;;;;;;;14.57;9.02;;;-3.10;99.90;;;;;;5036378;28;20194;-61
2022/11/19 02:50:37;;;;;;;13.13;8.32;;;-3.10;99.90;;;;;;5035185;28;20198;-61
2022/11/19 02:53:05;;;;;;;12.77;8.85;;;-3.10;99.90;;;;;;5036402;28;20202;-62
2022/11/19 02:55:32;;;;;;;12.90;9.30;;;-3.20;99.90;;;;;;5035536;28;20233;-61
2022/11/19 02:58:03;;;;;;;11.98;7.80;;;-3.20;99.90;;;;;;5035861;28;20209;-61
2022/11/19 03:06:26;;;;;;;13.30;8.25;;;-3.20;99.90;;;;;;4977826;28;20251;-62
2022/11/19 03:08:53;;;;;;;12.70;8.73;;;-3.20;99.90;;;;;;5012919;28;20206;-60
2022/11/19 03:11:22;;;;;;;13.18;8.45;;;-3.20;99.90;;;;;;5038342;28;20209;-61
2022/11/19 03:16:43;;;;;;;12.85;8.85;;;-3.30;99.90;;;;;;5037922;28;20224;-61
2022/11/19 03:19:27;;;;;;;12.13;8.35;;;-3.30;99.90;;;;;;5041450;28;20210;-60
2022/11/19 03:21:58;;;;;;;14.10;7.68;;;-3.30;99.90;;;;;;5039304;28;20190;-61
2022/11/19 03:24:30;;;;;;;14.23;9.35;;;-3.30;99.90;;;;;;5034949;28;20187;-62
2022/11/19 03:27:02;;;;;;;12.00;7.95;;;-3.30;99.90;;;;;;5034246;28;20202;-61
2022/11/19 03:29:33;;;;;;;13.15;8.82;;;-3.30;99.90;;;;;;5034128;28;20191;-62
2022/11/19 03:32:07;;;;;;;11.38;8.40;;;-3.40;99.90;;;;;;5034416;28;20187;-61
2022/11/19 03:34:36;;;;;;;13.07;8.93;;;-3.30;99.90;;;;;;5033954;28;20187;-60
2022/11/19 03:37:05;;;;;;;11.73;8.05;;;-3.40;99.90;;;;;;5033535;28;20214;-61
2022/11/19 03:39:36;;;;;;;11.85;7.90;;;-3.40;99.90;;;;;;5034339;28;20569;-61
2022/11/19 03:42:06;;;;;;;14.40;8.77;;;-3.40;99.90;;;;;;5033803;28;20654;-60
2022/11/19 03:44:36;;;;;;;14.18;9.52;;;-3.40;99.90;;;;;;5033591;28;20202;-61
2022/11/19 03:47:08;;;;;;;11.60;8.63;;;-3.40;99.90;;;;;;5033644;28;20529;-60
2022/11/19 03:49:41;;;;;;;12.23;8.13;;;-3.50;99.90;;;;;;5033927;28;20203;-61
2022/11/19 03:52:10;;;;;;;13.82;8.50;;;-3.50;99.90;;;;;;5033541;28;20186;-61
2022/11/19 03:54:37;;;;;;;13.52;8.23;;;-3.50;99.90;;;;;;5032801;28;20207;-60
2022/11/19 03:57:06;;;;;;;10.30;7.80;;;-3.50;99.90;;;;;;5033366;28;20549;-61
2022/11/19 03:59:33;;;;;;;16.20;8.65;;;-3.50;99.90;;;;;;5033552;28;20256;-62
2022/11/19 04:02:06;;;;;;;11.07;8.57;;;-3.60;99.90;;;;;;5033071;28;20202;-61
2022/11/19 04:04:36;;;;;;;11.95;7.78;;;-3.60;99.90;;;;;;5033388;28;20195;-61
2022/11/19 04:10:34;;;;;;;9.88;7.25;;;-3.60;99.90;;;;;;5111010;27;20548;-60
2022/11/19 04:13:01;;;;;;;16.02;8.73;;;-3.70;99.90;;;;;;5111287;28;20282;-61
2022/11/19 04:15:28;;;;;;;13.82;9.00;;;-3.70;99.90;;;;;;5110982;28;20215;-61
2022/11/19 04:17:55;;;;;;;14.23;8.40;;;-3.70;99.90;;;;;;5110765;28;20200;-61
2022/11/19 04:20:22;;;;;;;12.25;9.48;;;-3.70;99.90;;;;;;5110819;28;20192;-61
2022/11/19 04:22:51;;;;;;;12.10;8.48;;;-3.70;99.90;;;;;;5090468;22;20229;-58
2022/11/19 04:25:17;;;;;;;10.63;7.88;;;-3.70;99.90;;;;;;5050676;28;20209;-58
2022/11/19 04:27:46;;;;;;;13.95;9.00;;;-3.80;99.90;;;;;;5050603;28;20205;-58
2022/11/19 04:30:14;;;;;;;14.52;9.20;;;-3.80;99.90;;;;;;5050269;28;20300;-58
2022/11/19 04:32:41;;;;;;;12.02;8.82;;;-3.80;99.90;;;;;;5050202;28;20226;-60
2022/11/19 04:35:08;;;;;;;15.05;8.85;;;-3.80;99.90;;;;;;5050228;28;20197;-59
2022/11/19 04:37:35;;;;;;;12.90;8.63;;;-3.80;99.90;;;;;;5050445;28;20201;-59
2022/11/19 04:40:02;;;;;;;10.60;7.40;;;-3.80;99.90;;;;;;5050499;28;20193;-58
2022/11/19 04:42:28;;;;;;;11.23;7.30;;;-3.80;99.90;;;;;;5049684;28;20710;-59
2022/11/19 04:44:57;;;;;;;13.32;8.98;;;-3.80;99.90;;;;;;5049715;28;20205;-58
2022/11/19 04:47:24;;;;;;;13.70;8.38;;;-3.80;99.90;;;;;;5050168;28;20198;-58
2022/11/19 04:49:50;;;;;;;13.98;8.80;;;-3.80;99.90;;;;;;5049607;28;20244;-58
2022/11/19 04:52:17;;;;;;;12.57;8.48;;;-3.90;99.90;;;;;;5050139;28;20228;-59
2022/11/19 04:54:44;;;;;;;13.60;8.43;;;-3.90;99.90;;;;;;5049844;28;20213;-58
2022/11/19 04:57:10;;;;;;;13.85;8.27;;;-3.90;99.90;;;;;;5049502;28;20666;-59
2022/11/19 04:59:37;;;;;;;11.35;8.65;;;-4.00;99.90;;;;;;5050021;28;20209;-59
2022/11/19 05:02:05;;;;;;;9.80;6.90;;;-4.00;99.90;;;;;;5049568;28;20230;-59
2022/11/19 05:04:32;;;;;;;11.68;8.50;;;-4.00;99.90;;;;;;5049945;28;20228;-57
2022/11/19 05:06:59;;;;;;;12.55;8.25;;;-4.00;99.90;;;;;;5049865;28;20669;-59
2022/11/19 05:09:25;;;;;;;10.52;8.02;;;-4.00;99.90;;;;;;5050247;28;20693;-59
2022/11/19 05:11:52;;;;;;;11.00;7.55;;;-4.10;99.90;;;;;;5050182;28;20218;-59
2022/11/19 05:14:19;;;;;;;13.85;9.07;;;-4.10;99.90;;;;;;5049787;28;20205;-58
2022/11/19 05:16:46;;;;;;;14.20;8.30;;;-4.10;99.90;;;;;;5049737;28;20689;-57
2022/11/19 05:19:14;;;;;;;11.90;8.73;;;-4.10;99.90;;;;;;5050218;28;20555;-58
2022/11/19 05:21:41;;;;;;;13.50;10.18;;;-4.10;99.90;;;;;;5037938;28;20249;-58
2022/11/19 05:24:08;;;;;;;12.98;8.70;;;-4.10;99.90;;;;;;5036948;28;20257;-59
2022/11/19 05:26:35;;;;;;;12.65;7.90;;;-4.10;99.90;;;;;;5037064;28;20210;-59
2022/11/19 05:29:01;;;;;;;12.57;8.25;;;-4.10;99.90;;;;;;5036428;28;20225;-58
2022/11/19 05:31:28;;;;;;;15.25;7.95;;;-4.10;99.90;;;;;;5037088;28;20209;-59
2022/11/19 05:33:55;;;;;;;11.52;8.07;;;-4.20;99.90;;;;;;5036556;28;20587;-59
2022/11/19 05:36:23;;;;;;;13.60;9.10;;;-4.20;99.90;;;;;;5036209;28;20202;-58
2022/11/19 05:38:50;;;;;;;10.93;8.35;;;-4.20;99.90;;;;;;5036178;28;20202;-57
2022/11/19 05:41:16;;;;;;;11.77;7.93;;;-4.20;99.90;;;;;;5035881;28;20565;-57
2022/11/19 05:43:43;;;;;;;13.52;8.10;;;-4.20;99.90;;;;;;5036042;28;20670;-58
2022/11/19 05:46:10;;;;;;;11.82;8.60;;;-4.20;99.90;;;;;;5036040;28;20213;-59
2022/11/19 05:48:36;;;;;;;11.30;7.65;;;-4.20;99.90;;;;;;5036028;28;20213;-57
2022/11/19 05:51:03;;;;;;;13.27;8.32;;;-4.20;99.90;;;;;;5036030;28;20233;-59
2022/11/19 05:53:31;;;;;;;12.20;7.30;;;-4.20;99.90;;;;;;5035992;28;20218;-58
2022/11/19 05:55:58;;;;;;;10.52;8.07;;;-4.20;99.90;;;;;;5036547;28;20206;-57
2022/11/19 05:58:25;;;;;;;14.45;8.95;;;-4.20;99.90;;;;;;5036147;28;20209;-59
2022/11/19 06:00:54;;;;;;;14.30;7.90;;;-4.20;99.90;;;;;;5035448;28;20226;-59
2022/11/19 06:03:21;;;;;;;13.50;9.02;;;-4.20;99.90;;;;;;5035753;28;20222;-58
2022/11/19 06:05:48;;;;;;;14.38;8.43;;;-4.20;99.90;;;;;;5035441;28;20202;-58
2022/11/19 06:08:14;;;;;;;13.15;7.90;;;-4.20;99.90;;;;;;5035445;28;20210;-58
2022/11/19 06:10:43;;;;;;;9.43;7.03;;;-4.20;99.90;;;;;;5035248;28;20230;-58
2022/11/19 06:13:10;;;;;;;11.88;8.40;;;-4.20;99.90;;;;;;5034801;28;20616;-58
2022/11/19 06:15:37;;;;;;;12.80;8.18;;;-4.20;99.90;;;;;;5035511;28;20233;-58
2022/11/19 06:18:04;;;;;;;12.68;8.70;;;-4.20;99.90;;;;;;5035422;28;20214;-59
2022/11/19 06:20:30;;;;;;;11.50;7.72;;;-4.20;99.90;;;;;;5035677;28;20202;-59
2022/11/19 06:22:57;;;;;;;14.45;8.65;;;-4.20;99.90;;;;;;5035412;28;20236;-58
2022/11/19 06:25:24;;;;;;;12.48;7.80;;;-4.20;99.90;;;;;;5035117;28;20257;-58
2022/11/19 06:27:52;;;;;;;13.70;8.63;;;-4.30;99.90;;;;;;5035436;28;20206;-59
2022/11/19 06:30:19;;;;;;;16.65;10.18;;;-4.30;99.90;;;;;;5035150;28;20264;-63
2022/11/19 06:32:46;;;;;;;12.07;8.27;;;-4.30;99.90;;;;;;5030839;28;20229;-59
2022/11/19 06:35:13;;;;;;;13.85;7.07;;;-4.30;99.90;;;;;;5034656;28;20206;-59
2022/11/19 06:37:39;;;;;;;12.77;7.63;;;-4.30;99.90;;;;;;5032067;28;20199;-58
2022/11/19 06:40:07;;;;;;;12.05;8.40;;;-4.30;99.90;;;;;;5032250;28;20218;-59
2022/11/19 06:42:37;;;;;;;12.95;7.75;;;-4.30;99.90;;;;;;5034142;28;20585;-58
2022/11/19 06:45:08;;;;;;;13.18;7.75;;;-4.30;99.90;;;;;;5031604;28;20205;-59
2022/11/19 06:47:35;;;;;;;12.07;7.68;;;-4.30;99.90;;;;;;5034599;28;20191;-58
2022/11/19 06:50:04;;;;;;;11.25;7.93;;;-4.30;99.90;;;;;;5032046;28;20218;-59
2022/11/19 06:52:30;;;;;;;11.45;6.90;;;-4.30;99.90;;;;;;5026455;28;20690;-58
2022/11/19 06:54:57;;;;;;;10.40;7.80;;;-4.30;99.90;;;;;;5020200;28;20289;-58
2022/11/19 06:57:24;;;;;;;12.43;8.32;;;-4.20;99.90;;;;;;5035232;28;20210;-59
2022/11/19 06:59:51;;;;;;;13.35;7.90;;;-4.20;99.90;;;;;;5034939;28;20198;-58
2022/11/19 07:02:19;;;;;;;10.73;7.80;;;-4.20;99.90;;;;;;5028125;28;20226;-61
2022/11/19 07:04:46;;;;;;;10.43;8.20;;;-4.20;99.90;;;;;;5033206;28;20202;-59
2022/11/19 07:07:12;;;;;;;8.68;6.75;;;-4.20;99.90;;;;;;5041804;28;20201;-60
2022/11/19 07:09:39;;;;;;;10.50;7.72;;;-4.10;99.90;;;;;;5042705;28;20248;-58
2022/11/19 07:12:07;;;;;;;11.25;8.25;;;-4.10;99.90;;;;;;5026092;28;20694;-58
2022/11/19 07:14:34;;;;;;;11.48;7.05;;;-4.10;99.90;;;;;;5028779;28;20202;-57
2022/11/19 07:17:01;;;;;;;10.95;8.38;;;-4.10;99.90;;;;;;5028370;28;20289;-58
2022/11/19 07:19:29;;;;;;;14.25;7.05;;;-4.10;99.90;;;;;;5034849;28;20191;-58
2022/11/19 07:21:56;;;;;;;11.68;6.70;;;-4.10;99.90;;;;;;5035476;28;20233;-59
2022/11/19 07:24:22;;;;;;;12.57;7.65;;;-4.10;99.90;;;;;;5033385;28;20210;-60
2022/11/19 07:26:49;;;;;;;9.23;7.10;;;-4.00;99.90;;;;;;5034787;28;20223;-60
2022/11/19 07:29:16;;;;;;;11.98;8.25;;;-4.00;99.90;;;;;;5035858;28;20585;-59
2022/11/19 07:31:45;;;;;;;12.52;8.35;;;-4.00;99.90;;;;;;5046200;28;20230;-59
2022/11/19 07:34:12;;;;;;;12.55;7.32;;;-4.00;99.90;;;;;;5034977;28;20209;-58
2022/11/19 07:36:40;;;;;;;12.07;7.70;;;-3.90;99.90;;;;;;5034231;28;20210;-63
2022/11/19 07:39:08;;;;;;;11.82;7.70;;;-3.90;99.90;;;;;;5035658;28;20285;-60
2022/11/19 07:44:19;;;;;;;11.05;7.72;;;-3.70;99.90;;;;;;5033233;28;20184;-60
2022/11/19 07:46:46;;;;;;;12.52;7.25;;;-3.70;99.90;;;;;;5034371;28;20209;-60
2022/11/19 07:49:13;;;;;;;9.25;5.63;;;-3.70;99.90;;;;;;5033497;28;20214;-61
2022/11/19 07:51:41;;;;;;;10.82;7.25;;;-3.70;99.90;;;;;;5032016;28;20245;-58
2022/11/19 07:54:10;;;;;;;10.90;7.68;;;-3.60;99.90;;;;;;5034709;28;20221;-59
2022/11/19 07:56:37;;;;;;;10.55;6.88;;;-3.50;99.90;;;;;;5034334;28;20289;-58
2022/11/19 07:59:04;;;;;;;11.63;9.00;;;-3.50;99.90;;;;;;5034568;28;20213;-60
2022/11/19 08:01:31;;;;;;;10.88;7.70;;;-3.40;99.90;;;;;;5031683;28;20194;-61
2022/11/19 08:03:58;;;;;;;10.18;7.70;;;-3.30;99.90;;;;;;5031955;28;20207;-60
2022/11/19 08:06:26;;;;;;;10.90;7.28;;;-3.20;99.90;;;;;;5034626;28;20205;-60
2022/11/19 08:08:56;;;;;;;9.70;7.65;;;-3.20;99.90;;;;;;5031192;28;20194;-59
2022/11/19 08:11:23;;;;;;;12.07;6.95;;;-3.20;99.90;;;;;;5032917;28;20218;-61
2022/11/19 08:13:50;;;;;;;12.20;8.48;;;-3.20;99.90;;;;;;5029693;28;20213;-61
2022/11/19 08:18:11;;;;;;;12.02;8.35;;;-3.10;99.90;;;;;;5041715;28;20205;-61
2022/11/19 08:19:06;;;;;;;11.93;7.13;;;-3.10;99.90;;;;;;5033908;28;20746;-59
2022/11/19 08:21:32;;;;;;;11.82;7.95;;;-3.00;99.90;;;;;;5034160;28;20252;-60
2022/11/19 08:24:01;;;;;;;12.18;7.22;;;-2.90;99.90;;;;;;5033300;28;20202;-60
2022/11/19 08:26:27;;;;;;;13.05;8.60;;;-2.80;99.90;;;;;;5033031;28;20206;-59
2022/11/19 08:28:54;;;;;;;10.95;7.65;;;-2.70;99.90;;;;;;5032547;28;20209;-59
2022/11/19 08:31:21;;;;;;;12.48;7.80;;;-2.70;99.90;;;;;;5034259;28;20226;-60
2022/11/19 08:33:48;;;;;;;11.10;6.95;;;-2.60;99.90;;;;;;5033588;28;20214;-59
2022/11/19 08:36:15;;;;;;;10.13;7.50;;;-2.60;99.90;;;;;;5034275;28;20209;-58
2022/11/19 08:38:42;;;;;;;12.02;7.90;;;-2.60;99.90;;;;;;5034483;28;20209;-60
2022/11/19 08:43:54;;;;;;;11.77;8.13;;;-2.70;99.90;;;;;;5033534;28;20209;-59
2022/11/19 08:46:21;;;;;;;10.48;8.40;;;-2.70;99.90;;;;;;5033994;28;20206;-60
2022/11/19 08:48:47;;;;;;;11.00;7.90;;;-2.60;99.90;;;;;;5034001;28;20202;-60
2022/11/19 08:51:15;;;;;;;10.73;7.60;;;-2.50;99.90;;;;;;5032664;28;20230;-59
2022/11/19 08:53:42;;;;;;;10.23;7.88;;;-2.40;99.90;;;;;;5033214;28;20209;-59
2022/11/19 08:56:10;;;;;;;12.18;7.85;;;-2.30;99.90;;;;;;5035428;28;20670;-60
2022/11/19 08:58:37;;;;;;;14.20;9.65;;;-2.20;99.90;;;;;;5036192;28;20210;-59
2022/11/19 09:01:10;;;;;;;10.27;7.60;;;-2.10;99.90;;;;;;5037866;28;20237;-60
2022/11/19 09:03:36;;;;;;;10.93;7.90;;;-1.90;99.90;;;;;;5038083;28;20245;-60
2022/11/19 09:06:04;;;;;;;11.68;7.30;;;-1.90;99.90;;;;;;5037618;28;20208;-59
2022/11/19 09:08:31;;;;;;;10.88;7.25;;;-1.70;99.90;;;;;;5038985;28;20208;-60
2022/11/19 09:10:58;;;;;;;12.32;7.72;;;-1.60;99.90;;;;;;5037541;28;20222;-61
2022/11/19 09:13:26;;;;;;;13.35;7.85;;;-1.50;99.90;;;;;;5036672;28;20222;-62
2022/11/19 09:15:54;;;;;;;12.35;7.75;;;-1.50;99.90;;;;;;5037456;28;20298;-61
2022/11/19 09:18:21;;;;;;;10.27;7.75;;;-1.40;99.90;;;;;;5039616;28;20210;-60
2022/11/19 09:20:54;;;;;;;11.82;7.78;;;-1.30;99.90;;;;;;5039574;28;20712;-61
2022/11/19 09:23:21;;;;;;;9.98;7.68;;;-1.20;99.90;;;;;;5037864;28;20313;-60
2022/11/19 09:25:55;;;;;;;8.48;7.57;;;-1.20;99.90;;;;;;5037511;28;20213;-60
2022/11/19 09:28:22;;;;;;;13.73;8.70;;;-1.10;99.90;;;;;;5038203;28;20637;-60
2022/11/19 09:30:56;;;;;;;13.48;8.75;;;-1.00;99.90;;;;;;5039048;28;20229;-59
2022/11/19 09:33:23;;;;;;;11.40;8.07;;;-0.90;99.90;;;;;;5038622;28;20228;-59
2022/11/19 09:35:50;;;;;;;12.35;7.40;;;-0.80;99.90;;;;;;5038787;28;20206;-60
2022/11/19 09:38:17;;;;;;;12.27;8.75;;;-0.70;99.90;;;;;;5037597;28;20574;-59
2022/11/19 09:40:45;;;;;;;10.38;7.80;;;-0.60;99.90;;;;;;5033345;28;20205;-59
2022/11/19 09:43:20;;;;;;;12.45;7.55;;;-0.50;99.90;;;;;;5033415;28;20229;-59
2022/11/19 09:45:58;;;;;;;10.30;7.47;;;-0.40;99.90;;;;;;5037589;28;20564;-60
2022/11/19 09:48:33;;;;;;;9.82;7.45;;;-0.30;99.90;;;;;;5034867;28;20198;-59
2022/11/19 09:51:03;;;;;;;12.13;8.00;;;-0.30;99.90;;;;;;5042544;28;20788;-60
2022/11/19 09:53:35;;;;;;;11.07;7.72;;;-0.20;99.90;;;;;;5033915;28;20225;-59
2022/11/19 09:56:03;;;;;;;10.77;8.32;;;-0.10;99.90;;;;;;5036808;28;20191;-60
2022/11/19 09:58:33;;;;;;;9.35;7.05;;;0.00;99.90;;;;;;5023605;28;20211;-59
2022/11/19 10:01:01;;;;;;;15.35;9.02;;;0.10;99.90;;;;;;5033227;28;20199;-60
2022/11/19 10:03:29;;;;;;;9.50;6.70;;;0.10;99.90;;;;;;5036226;28;20573;-60
2022/11/19 10:06:10;;;;;;;8.18;7.10;;;0.20;99.90;;;;;;5035935;28;20209;-60
2022/11/19 10:08:51;;;;;;;11.90;7.70;;;0.30;99.90;;;;;;5036531;28;20190;-60
2022/11/19 10:11:31;;;;;;;9.48;7.47;;;0.40;99.90;;;;;;5036201;28;20217;-59
2022/11/19 10:14:10;;;;;;;10.25;8.32;;;0.40;99.90;;;;;;5036113;28;20202;-60
2022/11/19 10:16:48;;;;;;;9.70;6.80;;;0.50;99.90;;;;;;5036816;28;20194;-59
2022/11/19 10:19:26;;;;;;;12.13;8.60;;;0.60;99.90;;;;;;5032226;28;20198;-60
2022/11/19 10:22:03;;;;;;;10.15;7.95;;;0.60;99.90;;;;;;5038067;28;20233;-59
2022/11/19 10:24:37;;;;;;;8.32;6.43;;;0.60;99.90;;;;;;5034888;28;20284;-59
2022/11/19 10:27:15;;;;;;;9.98;7.20;;;0.70;99.90;;;;;;5022669;28;20198;-60
2022/11/19 10:29:42;;;;;;;9.70;6.05;;;0.80;99.90;;;;;;5036063;28;20186;-61
2022/11/19 10:32:23;;;;;;;9.68;7.35;;;0.80;99.90;;;;;;5035414;28;20226;-59
2022/11/19 10:34:56;;;;;;;9.32;6.55;;;0.90;99.90;;;;;;5035166;28;20619;-60
2022/11/19 10:37:25;;;;;;;8.57;6.45;;;0.90;99.90;;;;;;5034821;28;20309;-60
2022/11/19 10:39:55;;;;;;;8.30;6.22;;;1.00;99.90;;;;;;5034417;28;20765;-59
2022/11/19 10:42:27;;;;;;;12.30;7.28;;;1.00;99.90;;;;;;5034425;28;20300;-60
2022/11/19 10:44:59;;;;;;;9.25;7.88;;;1.00;99.90;;;;;;5035803;28;20201;-58
2022/11/19 10:47:33;;;;;;;9.02;6.75;;;1.00;99.90;;;;;;5033321;28;20674;-59
2022/11/19 10:50:00;;;;;;;8.88;6.70;;;1.00;99.90;;;;;;5035066;28;20194;-60
2022/11/19 10:52:32;;;;;;;9.93;6.63;;;1.00;99.90;;;;;;5033832;28;20218;-59
2022/11/19 10:55:04;;;;;;;12.20;7.70;;;1.00;99.90;;;;;;5035524;28;20186;-60
2022/11/19 10:57:33;;;;;;;9.77;7.40;;;1.00;99.90;;;;;;5035381;28;20193;-60
2022/11/19 11:00:00;;;;;;;11.60;8.23;;;1.00;99.90;;;;;;5035375;28;20206;-59
2022/11/19 11:02:37;;;;;;;7.47;6.50;;;1.10;99.90;;;;;;5035343;28;20230;-60
2022/11/19 11:05:10;;;;;;;10.68;7.90;;;1.20;99.90;;;;;;5035390;28;20635;-60
2022/11/19 11:07:59;;;;;;;10.75;7.53;;;1.30;99.90;;;;;;5035728;28;20209;-59
2022/11/19 11:10:41;;;;;;;9.55;7.10;;;1.40;99.90;;;;;;5031347;28;20265;-59
2022/11/19 11:16:11;;;;;;;8.52;6.35;;;1.60;99.60;;;;;;5035443;28;20228;-59
2022/11/19 11:18:40;;;;;;;9.75;7.63;;;1.50;98.80;;;;;;5048805;22;20650;-60
2022/11/19 11:21:10;;;;;;;9.52;7.22;;;1.50;98.60;;;;;;5036682;28;20198;-61
2022/11/19 11:23:48;;;;;;;9.90;6.70;;;1.50;98.50;;;;;;5039180;28;20191;-62
2022/11/19 11:26:20;;;;;;;9.60;6.95;;;1.60;98.50;;;;;;5038911;28;20196;-60
2022/11/19 11:28:55;;;;;;;7.32;6.43;;;1.60;98.30;;;;;;5037932;28;20218;-62
2022/11/19 11:31:33;;;;;;;9.02;6.25;;;1.70;98.00;;;;;;5037617;28;20212;-61
2022/11/19 11:34:02;;;;;;;8.43;6.63;;;1.70;97.80;;;;;;5037892;28;20197;-60
2022/11/19 11:36:31;;;;;;;9.10;6.72;;;1.70;97.70;;;;;;5035222;28;20256;-62
2022/11/19 11:39:01;;;;;;;14.20;7.07;;;1.80;97.50;;;;;;5035027;28;20643;-61
2022/11/19 11:41:39;;;;;;;7.60;6.70;;;1.80;97.20;;;;;;5034244;28;20213;-62
2022/11/19 11:44:15;;;;;;;6.78;5.57;;;1.90;96.90;;;;;;5033600;28;20665;-62
2022/11/19 11:46:44;;;;;;;7.78;6.45;;;1.80;96.30;;;;;;5033800;28;20186;-63
2022/11/19 11:49:23;;;;;;;8.27;6.68;;;1.80;95.90;;;;;;5033618;28;20237;-59
2022/11/19 11:52:13;;;;;;;8.98;7.30;;;1.70;95.80;;;;;;5033744;28;20208;-62
2022/11/19 11:54:54;;;;;;;8.32;5.93;;;1.70;95.70;;;;;;5032389;28;20647;-62
2022/11/19 11:57:23;;;;;;;6.90;6.18;;;1.80;95.80;;;;;;5033410;28;20186;-62
2022/11/19 11:59:50;;;;;;;10.70;7.60;;;1.90;95.90;;;;;;5033610;28;20202;-59
2022/11/19 12:02:25;;;;;;;9.45;6.55;;;2.00;95.80;;;;;;5033186;28;20233;-61
2022/11/19 12:04:54;;;;;;;8.10;6.65;;;2.10;95.60;;;;;;5033735;28;20218;-62
2022/11/19 12:07:45;;;;;;;9.45;7.00;;;2.20;95.30;;;;;;5033359;28;20671;-62
2022/11/19 12:10:23;;;;;;;10.57;6.68;;;2.20;95.00;;;;;;5031142;28;20206;-62
2022/11/19 12:12:59;;;;;;;8.55;7.13;;;2.30;94.70;;;;;;5034367;28;20182;-61
2022/11/19 12:15:38;;;;;;;7.97;6.90;;;2.20;94.40;;;;;;5034736;28;20260;-61
2022/11/19 12:18:16;;;;;;;10.15;6.97;;;2.20;94.20;;;;;;5033465;28;20732;-62
2022/11/19 12:20:52;;;;;;;7.40;6.70;;;2.20;93.90;;;;;;5033765;28;20672;-61
2022/11/19 12:23:36;;;;;;;10.25;8.43;;;2.20;94.10;;;;;;5033349;28;20236;-61
2022/11/19 12:26:14;;;;;;;8.52;6.47;;;2.20;93.60;;;;;;5033591;28;20182;-62
2022/11/19 12:29:01;;;;;;;7.50;5.95;;;2.30;93.40;;;;;;5033577;28;20218;-61
2022/11/19 12:31:43;;;;;;;7.75;5.85;;;2.30;93.00;;;;;;5035993;28;20233;-60
2022/11/19 12:34:42;;;;;;;7.85;5.85;;;2.30;92.60;;;;;;5037571;28;20229;-62
2022/11/19 12:37:29;;;;;;;8.77;6.30;;;2.40;92.30;;;;;;5037173;28;20202;-62
2022/11/19 12:40:04;;;;;;;7.97;6.43;;;2.40;92.10;;;;;;5037567;28;20213;-59
2022/11/19 12:42:48;;;;;;;9.05;6.03;;;2.50;91.70;;;;;;5037588;28;20696;-61
2022/11/19 12:45:21;;;;;;;8.60;6.35;;;2.50;91.30;;;;;;5037603;28;20190;-62
2022/11/19 12:48:18;;;;;;;7.70;6.05;;;2.60;90.90;;;;;;5037120;28;20225;-61
2022/11/19 12:50:51;;;;;;;11.63;5.10;;;2.70;90.70;;;;;;5035806;28;20206;-61
2022/11/19 12:53:31;;;;;;;9.38;6.60;;;2.60;90.20;;;;;;5037771;28;20183;-59
2022/11/19 12:56:09;;;;;;;9.20;6.97;;;2.60;90.00;;;;;;5037493;28;20182;-62
2022/11/19 12:58:45;;;;;;;8.20;6.40;;;2.60;89.60;;;;;;5037563;28;20229;-61
2022/11/19 13:01:16;;;;;;;7.82;6.32;;;2.60;89.20;;;;;;5037047;28;20183;-60
2022/11/19 13:03:55;;;;;;;7.75;6.50;;;2.60;89.00;;;;;;5037164;28;20198;-62
2022/11/19 13:06:27;;;;;;;7.18;6.40;;;2.60;89.00;;;;;;5037364;28;20202;-60
2022/11/19 13:08:58;;;;;;;8.05;6.07;;;2.60;88.70;;;;;;5036624;28;20226;-60
2022/11/19 13:11:35;;;;;;;7.68;6.10;;;2.70;88.80;;;;;;5035853;28;20215;-61
2022/11/19 13:14:05;;;;;;;9.63;5.40;;;2.60;88.40;;;;;;5034780;28;20207;-61
2022/11/19 13:16:34;;;;;;;8.57;5.80;;;2.70;88.10;;;;;;5036630;28;20199;-62
2022/11/19 13:19:12;;;;;;;9.63;7.05;;;2.70;87.80;;;;;;5037635;28;20779;-62
2022/11/19 13:21:46;;;;;;;7.50;6.70;;;2.60;87.60;;;;;;5038223;28;20667;-60
2022/11/19 13:24:28;;;;;;;14.00;6.95;;;2.60;87.60;;;;;;5035197;28;20197;-62